Lubbock International, TX

8:54 AM CDT on April 27, 2015 (GMT -0500)
Lubbock International | | Change Station
CLOSE
Current Station
Airport
Location: Lubbock,
Elevation: 3241 ft
Nearby Weather Stations

Elev 3241 ft 33.67 °N, 101.82 °W | Updated 1 hour ago

Mostly Cloudy
Mostly Cloudy
48 °F
Feels Like 48 °F
N
15
Wind Variable Wind from North

Today
High -- | Low -- °F
--% Chance of Precip.
Yesterday
High -- | Low -- °F
Precip. -- in
7:03 AM 8:27 PM
Waxing Gibbous, 65% visible
Pressure 29.80 in
Visibility 10.0 miles
Clouds Few 3500 ft
Mostly Cloudy 5500 ft
Mostly Cloudy 11000 ft
Mostly Cloudy 25000 ft
Dew Point 45 °F
Humidity 87%
Rainfall 0.00 in
Snow Depth Not available.
UV 0 out of 12
Pollen 8.10 out of 12
Air Quality Not available.
Flu Activity Local Activity
METAR KLBB 271253Z 01013KT 10SM FEW035 BKN055 BKN110 BKN250 09/07 A2980

More Conditions Fewer Conditions

Pressure 29.80 in
Visibility 10.0 miles
Clouds Few 3500 ft
Mostly Cloudy 5500 ft
Mostly Cloudy 11000 ft
Mostly Cloudy 25000 ft
Dew Point 45 °F
Humidity 87%
Rainfall 0.00 in
Snow Depth Not available.
UV 0 out of 12
Pollen 8.10 out of 12
Air Quality Not available.
Flu Activity Local Activity
METAR KLBB 271253Z 01013KT 10SM FEW035 BKN055 BKN110 BKN250 09/07 A2980

More Conditions Fewer Conditions

Nowcast | as of 6:59 am CDT on April 27, 2015

Through 9 am...isolated to scattered rain showers will continue to develop and affect the rolling plains and South Plains. Expect rain totals of up to one tenth of an inch with this activity.

×

10-Day Weather Forecast

Almanac

Astronomy

Apr. 27, 2015 Rise Set
Actual Time
Civil Twilight
Nautical Twilight
Astronomical Twilight
Moon
Length of Visible Light
Length of Day
Tomorrow will be .
, % of the Moon is Illuminated

Today's Extremes

State Highs State Lows

Community

WunderPhotos

Upload Photos

1,817,309 photos uploaded!

WunderBlogs® & News

Nearby

Air Quality

  Air Quality AQ Index Pollutant
Not available.

Snow Depth

Station Depth Elevation

Earthquake Activity

City Distance Mag. Time & Date
Minimum magnitude displayed is 2.5.

Coastal Water Temperatures

Place Temperature

Stations

Nearby Weather Stations

Station Location Temp. Windchill Dew Point Humidity Wind Precip. Elev Updated Type